createdAt,value
2023-02-24T00:00:37.908Z,7.03
2023-02-24T00:03:11.161Z,1.27
2023-02-24T00:05:44.447Z,4.57
2023-02-24T00:08:13.841Z,2.77
2023-02-24T00:10:41.916Z,5.90
2023-02-24T00:13:12.033Z,4.07
2023-02-24T00:15:40.131Z,5.30
2023-02-24T00:18:08.314Z,4.60
2023-02-24T00:20:36.409Z,1.77
2023-02-24T00:23:04.662Z,5.30
2023-02-24T00:25:33.904Z,2.73
2023-02-24T00:28:02.360Z,2.97
2023-02-24T00:30:32.969Z,3.10
2023-02-24T00:33:02.847Z,5.57
2023-02-24T00:35:30.841Z,6.33
2023-02-24T00:37:58.894Z,6.73
2023-02-24T00:40:26.831Z,6.57
2023-02-24T00:42:56.108Z,1.97
2023-02-24T00:45:24.011Z,6.50
2023-02-24T00:47:52.201Z,2.60
2023-02-24T00:50:20.288Z,5.10
2023-02-24T00:52:49.620Z,5.30
2023-02-24T00:55:19.264Z,3.73
2023-02-24T00:57:47.174Z,5.67
2023-02-24T01:00:19.954Z,4.23
2023-02-24T01:02:47.947Z,5.73
2023-02-24T01:05:16.138Z,2.30
2023-02-24T01:07:44.059Z,8.03
2023-02-24T01:10:13.056Z,8.00
2023-02-24T01:12:49.752Z,1.17
2023-02-24T01:15:20.923Z,3.27
2023-02-24T01:17:49.173Z,8.23
2023-02-24T01:20:18.452Z,5.50
2023-02-24T01:22:51.312Z,2.83
2023-02-24T01:25:20.652Z,2.80
2023-02-24T01:27:48.948Z,4.13
2023-02-24T01:30:18.388Z,2.57
2023-02-24T01:32:48.560Z,5.20
2023-02-24T01:35:17.691Z,4.10
2023-02-24T01:37:46.015Z,2.00
2023-02-24T01:40:20.760Z,5.83
2023-02-24T01:42:49.571Z,2.83
2023-02-24T01:45:28.715Z,6.47
2023-02-24T01:48:01.836Z,6.27
2023-02-24T01:50:30.496Z,2.63
2023-02-24T01:53:01.745Z,4.43
2023-02-24T01:55:32.299Z,4.63
2023-02-24T01:58:02.996Z,4.37
2023-02-24T02:00:47.745Z,2.00
2023-02-24T02:03:27.682Z,7.60
2023-02-24T02:05:59.593Z,3.17
2023-02-24T02:08:28.111Z,11.67
2023-02-24T02:10:58.964Z,3.30
2023-02-24T02:13:28.571Z,1.77
2023-02-24T02:16:04.714Z,4.33
2023-02-24T02:18:42.968Z,3.40
2023-02-24T02:21:58.893Z,8.73
2023-02-24T02:24:41.886Z,2.93
2023-02-24T02:27:23.470Z,1.47
2023-02-24T02:30:26.223Z,2.60
2023-02-24T02:33:31.772Z,2.20
2023-02-24T02:36:07.096Z,5.47
2023-02-24T02:38:39.156Z,0.47
2023-02-24T02:41:14.625Z,5.27
2023-02-24T02:43:49.044Z,2.33
2023-02-24T02:46:20.865Z,3.00
2023-02-24T02:48:51.049Z,4.37
2023-02-24T02:51:23.287Z,4.00
2023-02-24T02:53:57.420Z,3.27
2023-02-24T02:56:30.611Z,3.63
2023-02-24T02:58:59.716Z,4.90
2023-02-24T03:01:29.764Z,5.70
2023-02-24T03:04:01.279Z,2.17
2023-02-24T03:06:32.954Z,3.80
2023-02-24T03:09:12.445Z,1.00
2023-02-24T03:11:41.468Z,3.57
2023-02-24T03:14:12.989Z,4.67
2023-02-24T03:16:41.690Z,6.50
2023-02-24T03:19:11.621Z,4.03
2023-02-24T03:21:42.377Z,5.10
2023-02-24T03:24:10.965Z,2.17
2023-02-24T03:26:43.156Z,3.87
2023-02-24T03:29:18.368Z,3.67
2023-02-24T03:31:49.016Z,7.33
2023-02-24T03:34:20.460Z,3.43
2023-02-24T03:36:49.753Z,6.37
2023-02-24T03:39:18.039Z,4.43
2023-02-24T03:41:54.195Z,5.13
2023-02-24T03:44:22.152Z,5.33
2023-02-24T03:46:50.108Z,3.77
2023-02-24T03:49:18.013Z,1.40
2023-02-24T03:51:57.045Z,6.87
2023-02-24T03:54:34.584Z,4.10
2023-02-24T03:57:13.138Z,0.80
2023-02-24T03:59:48.016Z,4.07
2023-02-24T04:02:19.980Z,6.30
2023-02-24T04:04:53.086Z,3.87
2023-02-24T04:07:34.461Z,4.90
2023-02-24T04:10:09.377Z,1.77
2023-02-24T04:12:42.784Z,2.63
2023-02-24T04:15:14.795Z,4.97
2023-02-24T04:17:45.637Z,4.67
2023-02-24T04:20:16.577Z,1.37
2023-02-24T04:22:49.949Z,5.07
2023-02-24T04:25:19.656Z,2.30
2023-02-24T04:27:48.467Z,5.07
2023-02-24T04:30:16.608Z,3.57
2023-02-24T04:32:44.794Z,3.77
2023-02-24T04:35:15.491Z,5.27
2023-02-24T04:37:45.048Z,4.10
2023-02-24T04:40:17.745Z,3.13
2023-02-24T04:42:49.151Z,3.53
2023-02-24T04:45:18.648Z,2.70
2023-02-24T04:47:50.900Z,0.93
2023-02-24T04:50:23.927Z,2.53
2023-02-24T04:52:53.173Z,5.20
2023-02-24T04:55:25.213Z,1.93
2023-02-24T04:57:53.993Z,4.73
2023-02-24T05:00:23.101Z,4.53
2023-02-24T05:02:51.640Z,2.77
2023-02-24T05:05:25.502Z,2.90
2023-02-24T05:07:54.610Z,9.27
2023-02-24T05:10:28.015Z,2.80
2023-02-24T05:12:58.274Z,5.90
2023-02-24T05:15:31.305Z,6.40
2023-02-24T05:18:00.870Z,5.13
2023-02-24T05:20:46.641Z,32.80
2023-02-24T05:23:16.940Z,23.53
2023-02-24T05:25:46.471Z,2.00
2023-02-24T05:28:14.394Z,4.10
2023-02-24T05:30:42.321Z,5.57
2023-02-24T05:33:10.698Z,3.57
2023-02-24T05:35:39.546Z,3.00
2023-02-24T05:38:08.333Z,3.13
2023-02-24T05:40:36.459Z,7.03
2023-02-24T05:43:05.891Z,4.43
2023-02-24T05:45:34.452Z,4.93
2023-02-24T05:48:05.817Z,9.47
2023-02-24T05:50:34.207Z,3.23
2023-02-24T05:53:03.471Z,4.57
2023-02-24T05:55:31.963Z,6.33
2023-02-24T05:58:00.345Z,4.67
2023-02-24T06:00:29.868Z,8.70
2023-02-24T06:03:08.493Z,3.27
2023-02-24T06:05:39.766Z,6.17
2023-02-24T06:08:11.783Z,5.13
2023-02-24T06:10:41.536Z,3.50
2023-02-24T06:13:10.402Z,11.27
2023-02-24T06:15:41.803Z,3.23
2023-02-24T06:18:11.669Z,7.10
2023-02-24T06:20:40.356Z,1.97
2023-02-24T06:23:08.863Z,2.97
2023-02-24T06:25:38.653Z,4.17
2023-02-24T06:28:06.715Z,7.37
2023-02-24T06:30:35.158Z,2.20
2023-02-24T06:33:05.873Z,5.57
2023-02-24T06:35:38.915Z,5.10
2023-02-24T06:38:06.797Z,7.27
2023-02-24T06:40:34.733Z,5.40
2023-02-24T06:43:02.901Z,3.73
2023-02-24T06:45:32.173Z,5.73
2023-02-24T06:48:00.159Z,3.17
2023-02-24T06:50:29.473Z,3.97
2023-02-24T06:53:00.704Z,1.70
2023-02-24T06:55:28.936Z,3.80
2023-02-24T06:57:58.199Z,6.00
2023-02-24T07:00:37.167Z,3.67
2023-02-24T07:03:14.862Z,4.30
2023-02-24T07:05:50.391Z,11.30
2023-02-24T07:08:19.815Z,3.87
2023-02-24T07:10:53.453Z,5.33
2023-02-24T07:13:21.824Z,4.00
2023-02-24T07:15:50.165Z,4.47
2023-02-24T07:18:18.453Z,3.43
2023-02-24T07:20:47.767Z,5.20
2023-02-24T07:23:16.140Z,5.43
2023-02-24T07:25:46.442Z,4.93
2023-02-24T07:28:14.523Z,3.70
2023-02-24T07:30:43.093Z,5.43
2023-02-24T07:33:12.053Z,4.10
2023-02-24T07:35:41.563Z,5.97
2023-02-24T07:38:11.085Z,8.23
2023-02-24T07:40:41.100Z,2.50
2023-02-24T07:43:08.974Z,5.80
2023-02-24T07:45:36.972Z,3.30
2023-02-24T07:48:05.052Z,2.47
2023-02-24T07:50:33.727Z,8.70
2023-02-24T07:53:05.021Z,4.20
2023-02-24T07:55:36.257Z,5.97
2023-02-24T07:58:06.091Z,2.10
2023-02-24T08:00:50.211Z,2.53
2023-02-24T08:03:18.283Z,2.47
2023-02-24T08:05:48.757Z,4.33
2023-02-24T08:08:21.084Z,3.67
2023-02-24T08:10:50.481Z,6.53
2023-02-24T08:13:19.195Z,4.90
2023-02-24T08:15:56.569Z,2.30
2023-02-24T08:18:24.745Z,2.70
2023-02-24T08:20:53.682Z,2.20
2023-02-24T08:23:23.624Z,3.67
2023-02-24T08:25:53.867Z,2.77
2023-02-24T08:28:26.861Z,5.23
2023-02-24T08:30:54.961Z,3.77
2023-02-24T08:33:24.236Z,4.10
2023-02-24T08:36:03.248Z,2.93
2023-02-24T08:38:41.980Z,4.40
2023-02-24T08:41:18.221Z,3.83
2023-02-24T08:43:47.514Z,5.40
2023-02-24T08:46:26.377Z,2.77
2023-02-24T08:48:56.577Z,3.43
2023-02-24T08:51:30.787Z,6.20
2023-02-24T08:54:01.407Z,7.73
2023-02-24T08:56:34.557Z,3.70
2023-02-24T08:59:06.421Z,2.20
2023-02-24T09:01:36.249Z,4.97
2023-02-24T09:04:06.653Z,2.90
2023-02-24T09:06:43.529Z,4.40
2023-02-24T09:09:22.608Z,2.10
2023-02-24T09:11:56.555Z,4.43
2023-02-24T09:14:28.722Z,3.77
2023-02-24T09:17:05.539Z,5.07
2023-02-24T09:19:54.877Z,1.87
2023-02-24T09:22:40.843Z,5.97
2023-02-24T09:25:21.788Z,2.93
2023-02-24T09:27:56.984Z,2.20
2023-02-24T09:30:50.995Z,3.37
2023-02-24T09:33:21.571Z,2.10
2023-02-24T09:35:52.069Z,3.87
2023-02-24T09:38:36.912Z,4.47
2023-02-24T09:41:26.488Z,3.10
2023-02-24T09:43:59.972Z,2.50
2023-02-24T09:46:28.032Z,1.93
2023-02-24T09:49:05.411Z,3.97
2023-02-24T09:51:42.307Z,3.73
2023-02-24T09:54:15.804Z,7.90
2023-02-24T09:56:49.309Z,4.43
2023-02-24T09:59:26.386Z,5.73
2023-02-24T10:02:02.269Z,3.07
2023-02-24T10:04:56.123Z,2.60
2023-02-24T10:07:36.243Z,2.77
2023-02-24T10:10:19.811Z,3.60
2023-02-24T10:12:53.760Z,2.83
2023-02-24T10:15:56.995Z,2.10
2023-02-24T10:18:30.602Z,4.13
2023-02-24T10:21:06.584Z,2.57
2023-02-24T10:23:45.381Z,6.70
2023-02-24T10:26:30.528Z,6.63
2023-02-24T10:29:09.027Z,3.57
2023-02-24T10:31:45.926Z,4.53
2023-02-24T10:34:20.254Z,3.27
2023-02-24T10:36:50.471Z,4.77
2023-02-24T10:39:25.360Z,4.83
2023-02-24T10:41:57.526Z,3.87
2023-02-24T10:44:27.011Z,3.70
2023-02-24T10:47:12.480Z,2.83
2023-02-24T10:50:02.718Z,3.40
2023-02-24T10:52:50.831Z,2.37
2023-02-24T10:55:29.263Z,3.73
2023-02-24T10:58:07.016Z,6.23
2023-02-24T11:01:12.523Z,3.67
2023-02-24T11:04:01.399Z,11.00
2023-02-24T11:06:48.189Z,6.57
2023-02-24T11:09:32.098Z,5.93
2023-02-24T11:12:18.936Z,6.00
2023-02-24T11:15:10.342Z,6.03
2023-02-24T11:17:45.726Z,4.30
2023-02-24T11:20:23.553Z,5.07
2023-02-24T11:22:55.911Z,4.03
2023-02-24T11:25:26.052Z,5.63
2023-02-24T11:27:56.056Z,7.93
2023-02-24T11:30:32.927Z,5.93
2023-02-24T11:33:13.407Z,3.53
2023-02-24T11:35:49.611Z,3.73
2023-02-24T11:38:28.158Z,4.87
2023-02-24T11:41:05.238Z,3.80
2023-02-24T11:43:34.966Z,8.27
2023-02-24T11:46:09.774Z,4.30
2023-02-24T11:48:39.525Z,3.03
2023-02-24T11:51:12.660Z,3.07
2023-02-24T11:53:47.258Z,7.47
2023-02-24T11:56:18.990Z,3.70
2023-02-24T11:58:52.527Z,6.33
2023-02-24T12:01:24.884Z,6.67
2023-02-24T12:03:56.456Z,5.00
2023-02-24T12:06:31.856Z,6.30
2023-02-24T12:09:07.807Z,8.83
2023-02-24T12:11:40.633Z,10.50
2023-02-24T12:14:21.379Z,12.20
2023-02-24T12:16:54.611Z,8.93
2023-02-24T12:19:29.932Z,5.90
2023-02-24T12:22:03.174Z,12.53
2023-02-24T12:24:31.072Z,14.93
2023-02-24T12:27:06.824Z,30.73
2023-02-24T12:30:06.460Z,7.23
2023-02-24T12:32:52.596Z,24.97
2023-02-24T12:35:26.728Z,14.80
2023-02-24T12:38:00.884Z,23.80
2023-02-24T12:40:46.448Z,10.93
2023-02-24T12:43:25.320Z,11.13
2023-02-24T12:45:56.970Z,10.17
2023-02-24T12:48:49.836Z,8.97
2023-02-24T12:51:23.494Z,6.80
2023-02-24T12:53:58.942Z,6.27
2023-02-24T12:56:28.983Z,10.73
2023-02-24T12:58:59.900Z,9.57
2023-02-24T13:01:32.650Z,5.93
2023-02-24T13:04:09.189Z,8.57
2023-02-24T13:06:49.877Z,10.50
2023-02-24T13:09:27.714Z,9.87
2023-02-24T13:12:30.153Z,10.00
2023-02-24T13:14:58.278Z,6.03
2023-02-24T13:17:28.026Z,9.23
2023-02-24T13:19:57.442Z,6.20
2023-02-24T13:22:30.360Z,7.30
2023-02-24T13:25:11.949Z,6.33
2023-02-24T13:27:41.975Z,4.83
2023-02-24T13:30:26.794Z,4.50
2023-02-24T13:33:05.681Z,4.77
2023-02-24T13:35:36.783Z,7.20
2023-02-24T13:38:23.913Z,7.07
2023-02-24T13:40:53.244Z,6.50
2023-02-24T13:43:27.350Z,11.20
2023-02-24T13:45:59.133Z,8.57
2023-02-24T13:48:41.230Z,7.47
2023-02-24T13:51:20.074Z,7.00
2023-02-24T13:54:02.648Z,5.50
2023-02-24T13:56:39.027Z,7.33
2023-02-24T13:59:19.182Z,9.40
2023-02-24T14:01:49.870Z,9.10
2023-02-24T14:04:20.280Z,13.13
2023-02-24T14:06:50.323Z,8.20
2023-02-24T14:09:22.645Z,8.37
2023-02-24T14:11:54.909Z,7.97
2023-02-24T14:14:23.072Z,10.90
2023-02-24T14:16:54.552Z,6.93
2023-02-24T14:19:22.769Z,6.00
2023-02-24T14:21:52.983Z,8.40
2023-02-24T14:24:21.473Z,9.57
2023-02-24T14:26:52.388Z,6.83
2023-02-24T14:29:24.200Z,10.90
2023-02-24T14:31:54.042Z,3.17
2023-02-24T14:34:23.892Z,6.27
2023-02-24T14:36:54.392Z,4.53
2023-02-24T14:39:23.884Z,10.77
2023-02-24T14:41:53.652Z,5.60
2023-02-24T14:44:25.360Z,8.93
2023-02-24T14:46:54.308Z,3.67
2023-02-24T14:49:24.297Z,7.37
2023-02-24T14:51:56.040Z,4.70
2023-02-24T14:54:33.429Z,4.30
2023-02-24T14:57:01.750Z,3.17
2023-02-24T14:59:34.304Z,6.30
2023-02-24T15:02:03.766Z,3.90
2023-02-24T15:04:36.860Z,4.30
2023-02-24T15:07:07.623Z,5.80
2023-02-24T15:09:37.078Z,3.23
2023-02-24T15:12:30.048Z,4.40
2023-02-24T15:15:02.298Z,5.40
2023-02-24T15:17:30.511Z,6.43
2023-02-24T15:19:58.436Z,6.60
2023-02-24T15:22:28.485Z,1.60
2023-02-24T15:24:58.008Z,3.60
2023-02-24T15:27:28.720Z,3.80
2023-02-24T15:30:07.036Z,5.13
2023-02-24T15:32:37.809Z,5.47
2023-02-24T15:35:07.884Z,2.23
2023-02-24T15:37:42.053Z,3.23
2023-02-24T15:40:20.857Z,4.17
2023-02-24T15:42:52.426Z,1.90
2023-02-24T15:45:28.940Z,7.13
2023-02-24T15:47:58.192Z,5.63
2023-02-24T15:50:26.262Z,7.33
2023-02-24T15:52:54.211Z,4.27
2023-02-24T15:55:29.108Z,2.80
2023-02-24T15:58:01.655Z,10.13
2023-02-24T16:00:32.351Z,4.57
2023-02-24T16:03:00.322Z,5.10
2023-02-24T16:05:28.294Z,2.20
2023-02-24T16:07:56.294Z,4.90
2023-02-24T16:10:26.440Z,7.03
2023-02-24T16:12:55.992Z,8.40
2023-02-24T16:15:26.992Z,4.03
2023-02-24T16:17:56.761Z,5.80
2023-02-24T16:20:41.780Z,6.73
2023-02-24T16:23:11.731Z,2.93
2023-02-24T16:25:42.654Z,6.83
2023-02-24T16:28:14.537Z,7.10
2023-02-24T16:30:42.576Z,5.33
2023-02-24T16:33:13.813Z,7.00
2023-02-24T16:35:44.333Z,7.30
2023-02-24T16:38:15.144Z,9.00
2023-02-24T16:40:45.098Z,8.57
2023-02-24T16:43:13.499Z,6.27
2023-02-24T16:45:41.996Z,9.97
2023-02-24T16:48:17.336Z,8.17
2023-02-24T16:50:45.359Z,5.37
2023-02-24T16:53:16.168Z,16.20
2023-02-24T16:55:44.298Z,6.43
2023-02-24T16:58:12.645Z,14.03
2023-02-24T17:00:41.226Z,15.07
2023-02-24T17:03:20.594Z,8.50
2023-02-24T17:05:48.682Z,8.57
2023-02-24T17:08:17.354Z,9.00
2023-02-24T17:10:46.144Z,8.10
2023-02-24T17:13:17.135Z,7.73
2023-02-24T17:15:45.133Z,11.27
2023-02-24T17:18:13.317Z,8.17
2023-02-24T17:20:43.376Z,8.73
2023-02-24T17:23:12.239Z,14.03
2023-02-24T17:25:40.234Z,9.83
2023-02-24T17:28:08.480Z,10.77
2023-02-24T17:30:37.394Z,11.30
2023-02-24T17:33:05.513Z,16.30
2023-02-24T17:35:33.460Z,11.40
2023-02-24T17:38:04.511Z,8.80
2023-02-24T17:40:32.464Z,10.53
2023-02-24T17:43:00.403Z,10.83
2023-02-24T17:45:28.382Z,12.40
2023-02-24T17:47:56.304Z,15.43
2023-02-24T17:50:24.250Z,18.07
2023-02-24T17:52:52.177Z,10.57
2023-02-24T17:55:21.544Z,12.53
2023-02-24T17:57:49.479Z,12.70
2023-02-24T18:00:18.298Z,19.13
2023-02-24T18:02:46.278Z,16.83
2023-02-24T18:05:14.293Z,12.53
2023-02-24T18:07:42.222Z,12.83
2023-02-24T18:10:11.188Z,13.33
2023-02-24T18:12:40.522Z,5.93
2023-02-24T18:15:09.719Z,13.57
2023-02-24T18:17:38.405Z,17.97
2023-02-24T18:20:07.226Z,13.57
2023-02-24T18:22:35.169Z,16.40
2023-02-24T18:25:03.131Z,16.10
2023-02-24T18:27:31.106Z,9.53
2023-02-24T18:30:00.367Z,24.33
2023-02-24T18:32:28.456Z,17.17
2023-02-24T18:34:56.413Z,13.40
2023-02-24T18:37:24.293Z,15.73
2023-02-24T18:39:53.350Z,13.80
2023-02-24T18:42:21.358Z,8.90
2023-02-24T18:44:49.468Z,19.17
2023-02-24T18:47:18.821Z,14.23
2023-02-24T18:49:46.894Z,21.10
2023-02-24T18:52:14.831Z,9.33
2023-02-24T18:54:42.783Z,17.23
2023-02-24T18:57:10.683Z,12.97
2023-02-24T18:59:38.772Z,8.37
2023-02-24T19:02:06.746Z,18.67
2023-02-24T19:04:36.070Z,17.03
2023-02-24T19:07:04.277Z,18.60
2023-02-24T19:09:32.187Z,6.63
2023-02-24T19:12:01.416Z,11.67
2023-02-24T19:14:29.608Z,15.30
2023-02-24T19:16:57.513Z,8.80
2023-02-24T19:19:25.705Z,7.77
2023-02-24T19:21:55.016Z,10.27
2023-02-24T19:24:22.918Z,9.70
2023-02-24T19:26:51.242Z,13.53
2023-02-24T19:29:20.469Z,10.60
2023-02-24T19:31:53.861Z,9.50
2023-02-24T19:34:22.661Z,14.90
2023-02-24T19:36:50.561Z,10.50
2023-02-24T19:39:19.959Z,10.47
2023-02-24T19:41:49.626Z,7.90
2023-02-24T19:44:17.769Z,16.50
2023-02-24T19:46:45.853Z,14.60
2023-02-24T19:49:13.768Z,15.53
2023-02-24T19:51:42.950Z,20.03
2023-02-24T19:54:13.810Z,12.20
2023-02-24T19:56:44.086Z,20.63
2023-02-24T19:59:12.266Z,14.77
2023-02-24T20:01:40.313Z,16.53
2023-02-24T20:04:09.377Z,21.27
2023-02-24T20:06:38.858Z,14.47
2023-02-24T20:09:07.644Z,14.87
2023-02-24T20:11:36.264Z,15.50
2023-02-24T20:14:05.971Z,15.13
2023-02-24T20:16:34.917Z,19.60
2023-02-24T20:19:03.217Z,14.30
2023-02-24T20:21:31.486Z,9.27
2023-02-24T20:24:00.841Z,17.10
2023-02-24T20:26:29.238Z,17.47
2023-02-24T20:28:57.612Z,15.57
2023-02-24T20:31:27.305Z,11.77
2023-02-24T20:33:56.491Z,17.53
2023-02-24T20:36:29.051Z,8.00
2023-02-24T20:38:58.686Z,15.57
2023-02-24T20:41:27.667Z,11.27
2023-02-24T20:43:55.956Z,23.33
2023-02-24T20:46:25.540Z,13.50
2023-02-24T20:48:57.667Z,18.17
2023-02-24T20:51:26.041Z,23.90
2023-02-24T20:53:58.212Z,16.40
2023-02-24T20:56:27.063Z,23.30
2023-02-24T20:58:59.915Z,7.57
2023-02-24T21:01:28.934Z,13.17
2023-02-24T21:03:58.369Z,15.10
2023-02-24T21:06:28.949Z,12.73
2023-02-24T21:08:57.027Z,8.77
2023-02-24T21:11:25.137Z,13.90
2023-02-24T21:13:53.396Z,8.10
2023-02-24T21:16:22.352Z,11.23
2023-02-24T21:18:51.550Z,13.67
2023-02-24T21:21:21.463Z,16.40
2023-02-24T21:23:52.156Z,12.53
2023-02-24T21:26:21.228Z,10.53
2023-02-24T21:28:49.554Z,14.70
2023-02-24T21:31:20.401Z,8.47
2023-02-24T21:33:51.549Z,8.40
2023-02-24T21:36:24.371Z,8.77
2023-02-24T21:38:52.996Z,3.77
2023-02-24T21:41:21.481Z,7.63
2023-02-24T21:43:53.939Z,8.43
2023-02-24T21:46:22.175Z,5.67
2023-02-24T21:48:54.746Z,4.03
2023-02-24T21:51:25.038Z,6.33
2023-02-24T21:53:55.036Z,4.07
2023-02-24T21:56:25.245Z,7.03
2023-02-24T21:58:54.780Z,7.97
2023-02-24T22:01:25.898Z,6.53
2023-02-24T22:03:55.259Z,3.13
2023-02-24T22:06:26.073Z,3.57
2023-02-24T22:08:55.621Z,2.57
2023-02-24T22:11:23.688Z,7.63
2023-02-24T22:13:51.768Z,6.10
2023-02-24T22:16:21.966Z,6.30
2023-02-24T22:18:50.869Z,5.37
2023-02-24T22:21:21.144Z,2.70
2023-02-24T22:23:52.275Z,2.63
2023-02-24T22:26:22.844Z,4.80
2023-02-24T22:28:51.095Z,3.23
2023-02-24T22:31:21.051Z,6.27
2023-02-24T22:33:50.062Z,4.87
2023-02-24T22:36:19.820Z,4.77
2023-02-24T22:38:48.161Z,4.77
2023-02-24T22:41:19.460Z,7.30
2023-02-24T22:43:47.763Z,3.07
2023-02-24T22:46:17.284Z,1.67
2023-02-24T22:48:45.508Z,1.97
2023-02-24T22:51:15.037Z,4.40
2023-02-24T22:53:46.549Z,2.57
2023-02-24T22:56:15.656Z,1.80
2023-02-24T22:58:45.317Z,3.53
2023-02-24T23:01:14.938Z,2.70
2023-02-24T23:03:43.580Z,1.93
2023-02-24T23:06:13.833Z,1.67
2023-02-24T23:08:43.296Z,1.20
2023-02-24T23:11:13.357Z,2.37
2023-02-24T23:13:42.564Z,2.43
2023-02-24T23:16:14.275Z,1.67
2023-02-24T23:18:48.520Z,1.93
2023-02-24T23:21:17.101Z,3.13
2023-02-24T23:23:45.057Z,1.93
2023-02-24T23:26:13.236Z,2.83
2023-02-24T23:28:41.345Z,1.03
2023-02-24T23:31:09.309Z,0.73
2023-02-24T23:33:40.908Z,3.33
2023-02-24T23:36:09.842Z,1.50
2023-02-24T23:38:37.740Z,2.97
2023-02-24T23:41:09.096Z,5.47
2023-02-24T23:43:37.064Z,1.00
2023-02-24T23:46:05.813Z,2.90
2023-02-24T23:48:33.810Z,1.70
2023-02-24T23:51:06.641Z,1.23
2023-02-24T23:53:38.417Z,2.30
2023-02-24T23:56:09.426Z,3.27
2023-02-24T23:58:38.362Z,1.10
